Time;durP1;ratioP1;P1;durP2;ratioP2;P2;SDS_P1;SDS_P2;PMS_P1;PMS_P2;Temp;Humidity;BMP_temperature;BMP_pressure;BME280_temperature;BME280_humidity;BME280_pressure;Samples;Min_cycle;Max_cycle;Signal;HPM_P1;HPM_P2
2023/10/19 00:00:19;;;;;;;2.33;1.52;;;;;;;7.25;100.00;94502.19;1021317;29;20098;-73
2023/10/19 00:00:50;;;;;;;2.30;1.42;;;;;;;7.21;100.00;94486.31;1023195;29;20988;-73
2023/10/19 00:01:23;;;;;;;2.35;2.15;;;;;;;7.23;100.00;94489.41;1023196;28;20447;-73
2023/10/19 00:01:54;;;;;;;0.68;0.68;;;;;;;7.21;100.00;94491.53;1016233;29;20761;-73
2023/10/19 00:02:24;;;;;;;2.10;2.00;;;;;;;7.23;100.00;94489.41;1018576;29;20275;-73
2023/10/19 00:02:55;;;;;;;1.20;1.20;;;;;;;7.24;100.00;94490.19;1014722;29;20032;-73
2023/10/19 00:03:26;;;;;;;1.85;1.50;;;;;;;7.23;100.00;94489.41;1019179;29;20036;-74
2023/10/19 00:03:57;;;;;;;2.25;1.27;;;;;;;7.22;100.00;94487.88;1019169;29;20412;-73
2023/10/19 00:04:32;;;;;;;3.92;2.05;;;;;;;7.20;100.00;94484.75;1015241;29;20280;-73
2023/10/19 00:05:03;;;;;;;1.15;1.10;;;;;;;7.25;100.00;94489.94;1021683;29;20031;-74
2023/10/19 00:05:34;;;;;;;0.75;0.75;;;;;;;7.25;100.00;94492.53;1020848;28;20292;-73
2023/10/19 00:06:05;;;;;;;2.95;2.58;;;;;;;7.22;100.00;94493.09;1023304;29;20572;-73
2023/10/19 00:06:36;;;;;;;2.58;1.83;;;;;;;7.21;100.00;94488.13;1024474;28;20396;-73
2023/10/19 00:07:08;;;;;;;10.10;2.50;;;;;;;7.21;100.00;94496.75;1023078;29;20277;-73
2023/10/19 00:07:39;;;;;;;2.05;1.35;;;;;;;7.22;100.00;94503.53;1019169;29;20299;-73
2023/10/19 00:08:22;;;;;;;2.25;2.05;;;;;;;7.22;100.00;94498.31;1011517;29;20288;-72
2023/10/19 00:08:52;;;;;;;2.95;2.10;;;;;;;7.10;100.00;94490.03;1011323;29;20135;-74
2023/10/19 00:09:23;;;;;;;2.42;2.13;;;;;;;7.15;100.00;94492.63;1015325;29;20276;-72
2023/10/19 00:09:54;;;;;;;2.70;1.70;;;;;;;7.17;100.00;94508.75;1016631;29;20028;-73
2023/10/19 00:10:29;;;;;;;1.55;1.42;;;;;;;7.11;100.00;94488.19;1019007;29;20536;-73
2023/10/19 00:11:32;;;;;;;2.92;2.05;;;;;;;7.15;100.00;94502.28;1013078;29;20285;-73
2023/10/19 00:12:08;;;;;;;1.63;1.08;;;;;;;7.15;100.00;94497.06;1019456;29;20255;-72
2023/10/19 00:12:39;;;;;;;1.98;1.85;;;;;;;7.07;100.00;94487.97;1012360;29;20108;-74
2023/10/19 00:13:11;;;;;;;1.08;1.05;;;;;;;7.12;100.00;94498.38;1008129;29;20329;-75
2023/10/19 00:13:43;;;;;;;3.60;1.90;;;;;;;7.11;100.00;94491.59;1011506;29;20115;-75
2023/10/19 00:14:17;;;;;;;3.45;1.98;;;;;;;7.13;100.00;94492.09;1012771;29;20309;-74
2023/10/19 00:14:47;;;;;;;2.15;2.05;;;;;;;7.14;100.00;94500.69;1015450;29;20354;-74
2023/10/19 00:15:23;;;;;;;2.72;2.03;;;;;;;7.14;100.00;94491.03;1019539;29;20271;-75
2023/10/19 00:15:54;;;;;;;1.48;1.38;;;;;;;7.17;100.00;94489.72;1020578;29;20689;-74
2023/10/19 00:16:29;;;;;;;3.42;1.90;;;;;;;7.16;100.00;94488.16;1023350;29;20271;-74
2023/10/19 00:17:06;;;;;;;0.93;0.93;;;;;;;7.18;100.00;94494.69;1019063;29;20088;-75
2023/10/19 00:17:38;;;;;;;1.17;1.17;;;;;;;7.14;100.00;94483.22;1015386;29;20291;-76
2023/10/19 00:18:49;;;;;;;2.97;1.77;;;;;;;7.09;100.00;94483.25;1015344;29;20782;-74
2023/10/19 00:19:20;;;;;;;1.90;1.75;;;;;;;7.16;100.00;94491.56;1015076;29;20269;-74
2023/10/19 00:21:54;;;;;;;1.55;1.27;;;;;;;7.14;100.00;94493.66;1012835;29;20277;-74
2023/10/19 00:22:25;;;;;;;1.65;1.52;;;;;;;7.11;100.00;94483.78;1017047;29;20260;-75
2023/10/19 00:22:57;;;;;;;3.00;1.98;;;;;;;7.14;100.00;94485.81;1020122;29;20793;-74
2023/10/19 00:23:31;;;;;;;1.55;1.45;;;;;;;7.12;100.00;94487.94;1024444;28;20094;-74
2023/10/19 00:24:04;;;;;;;2.05;1.50;;;;;;;7.13;100.00;94489.50;1023174;29;20354;-75
2023/10/19 00:24:35;;;;;;;3.50;2.50;;;;;;;7.07;100.00;94474.91;1014298;29;20284;-74
2023/10/19 00:25:08;;;;;;;3.30;1.88;;;;;;;7.14;100.00;94483.22;1015490;29;20606;-74
2023/10/19 00:25:44;;;;;;;2.47;2.28;;;;;;;7.13;100.00;94478.28;1020016;29;20035;-74
2023/10/19 00:26:25;;;;;;;1.45;1.35;;;;;;;7.13;100.00;94473.84;1020191;29;20298;-75
2023/10/19 00:26:55;;;;;;;1.85;1.75;;;;;;;7.13;100.00;94468.63;1018494;29;20255;-75
2023/10/19 00:27:27;;;;;;;1.70;1.60;;;;;;;7.13;100.00;94463.41;1015379;29;20822;-74
2023/10/19 00:28:00;;;;;;;2.75;2.45;;;;;;;7.13;100.00;94463.41;1019018;29;20032;-75
2023/10/19 00:28:35;;;;;;;3.10;1.95;;;;;;;7.14;100.00;94459.72;1020534;29;20630;-74
2023/10/19 00:29:25;;;;;;;1.42;1.33;;;;;;;7.14;100.00;94454.50;1023314;29;20295;-75
2023/10/19 00:30:05;;;;;;;1.92;1.35;;;;;;;7.15;100.00;94461.31;1022573;29;20298;-75
2023/10/19 00:30:36;;;;;;;1.65;1.45;;;;;;;7.08;100.00;94445.97;1026413;28;20117;-74
2023/10/19 00:31:10;;;;;;;2.97;2.78;;;;;;;7.12;100.00;94442.81;1015355;29;20475;-75
2023/10/19 00:31:41;;;;;;;4.13;3.15;;;;;;;7.20;100.00;94455.28;1022160;29;20066;-74
2023/10/19 00:32:14;;;;;;;2.65;2.15;;;;;;;7.04;100.00;94436.34;1022173;29;20279;-74
2023/10/19 00:32:46;;;;;;;2.60;2.38;;;;;;;7.18;100.00;94460.78;1020739;28;20030;-74
2023/10/19 00:33:20;;;;;;;4.43;1.58;;;;;;;7.14;100.00;94443.31;1021968;29;20283;-75
2023/10/19 00:33:54;;;;;;;2.38;2.17;;;;;;;7.16;100.00;94452.44;1019168;29;20275;-75
2023/10/19 00:34:26;;;;;;;2.00;1.90;;;;;;;7.21;100.00;94462.84;1011183;29;20798;-75
2023/10/19 00:34:56;;;;;;;1.90;1.75;;;;;;;7.19;100.00;94464.94;1007271;29;20305;-74
2023/10/19 00:35:27;;;;;;;1.80;1.63;;;;;;;7.19;100.00;94467.53;1015112;29;20284;-74
2023/10/19 00:36:06;;;;;;;2.95;2.33;;;;;;;7.20;100.00;94463.09;1015982;29;20024;-74
2023/10/19 00:36:39;;;;;;;1.23;0.98;;;;;;;7.19;100.00;94466.75;1017746;29;20497;-74
2023/10/19 00:37:10;;;;;;;2.78;2.25;;;;;;;7.20;100.00;94470.91;1021374;29;20358;-74
2023/10/19 00:37:42;;;;;;;2.85;2.42;;;;;;;7.16;100.00;94455.03;1019083;29;20275;-74
2023/10/19 00:39:01;;;;;;;1.98;1.77;;;;;;;7.26;100.00;94464.63;1017787;29;20399;-74
2023/10/19 00:39:41;;;;;;;1.02;1.02;;;;;;;7.26;100.00;94465.41;1016733;29;20493;-74
2023/10/19 00:40:19;;;;;;;2.75;2.53;;;;;;;7.26;100.00;94456.78;1026314;28;20703;-74
2023/10/19 00:40:53;;;;;;;1.05;1.02;;;;;;;7.18;100.00;94452.16;1027105;28;20277;-74
2023/10/19 00:41:27;;;;;;;1.55;1.45;;;;;;;7.27;100.00;94459.13;1018863;29;20272;-73
2023/10/19 00:41:58;;;;;;;1.63;1.30;;;;;;;7.30;100.00;94461.19;1011398;29;20649;-75
2023/10/19 00:42:31;;;;;;;5.10;1.92;;;;;;;7.33;100.00;94463.25;1022015;28;20275;-74
2023/10/19 00:43:10;;;;;;;1.63;1.52;;;;;;;7.30;100.00;94457.78;1018622;29;20679;-74
2023/10/19 00:43:44;;;;;;;1.25;1.23;;;;;;;7.35;100.00;94462.22;1019326;29;20275;-74
2023/10/19 00:44:22;;;;;;;1.98;1.80;;;;;;;7.32;100.00;94451.25;1006886;29;20273;-74
2023/10/19 00:45:01;;;;;;;3.55;3.25;;;;;;;7.32;100.00;94451.25;1011478;29;20309;-75
2023/10/19 00:45:33;;;;;;;1.40;1.30;;;;;;;7.33;100.00;94452.81;1012485;29;20276;-74
2023/10/19 00:46:05;;;;;;;1.60;1.27;;;;;;;7.33;100.00;94449.44;1023424;28;20267;-72
2023/10/19 00:47:13;;;;;;;1.20;1.17;;;;;;;7.31;100.00;94446.34;1022892;29;20278;-74
2023/10/19 00:47:43;;;;;;;3.55;1.85;;;;;;;7.29;100.00;94446.59;1012369;29;20296;-74
2023/10/19 00:48:14;;;;;;;2.58;2.38;;;;;;;7.32;100.00;94446.03;1015717;29;20352;-74
2023/10/19 00:48:58;;;;;;;2.95;2.67;;;;;;;7.30;100.00;94436.94;1013478;29;20024;-75
2023/10/19 00:49:28;;;;;;;3.08;1.88;;;;;;;7.27;100.00;94438.25;1012896;29;20577;-75
2023/10/19 00:50:03;;;;;;;1.23;1.23;;;;;;;7.31;100.00;94449.72;1014925;29;20316;-74
2023/10/19 00:50:35;;;;;;;1.88;1.77;;;;;;;7.31;100.00;94443.72;1014794;29;20055;-73
2023/10/19 00:51:26;;;;;;;2.33;2.05;;;;;;;7.31;100.00;94439.28;1015129;29;20971;-74
2023/10/19 00:52:03;;;;;;;3.55;3.05;;;;;;;7.25;100.00;94429.94;1011398;29;20779;-73
2023/10/19 00:52:43;;;;;;;2.75;2.58;;;;;;;7.24;100.00;94423.16;1009359;29;20326;-73
2023/10/19 00:53:14;;;;;;;1.80;1.70;;;;;;;7.29;100.00;94430.94;1012236;29;20273;-73
2023/10/19 00:53:44;;;;;;;5.35;2.40;;;;;;;7.27;100.00;94429.63;1018979;29;20341;-73
2023/10/19 00:54:21;;;;;;;3.45;2.50;;;;;;;7.21;100.00;94421.09;1015127;29;20332;-73
2023/10/19 00:54:55;;;;;;;2.53;2.33;;;;;;;7.26;100.00;94436.69;1019813;29;20442;-74
2023/10/19 00:55:27;;;;;;;2.72;1.90;;;;;;;7.21;100.00;94423.72;1007199;29;20373;-74
2023/10/19 00:55:59;;;;;;;2.50;2.33;;;;;;;7.21;100.00;94422.91;1011157;29;20777;-74
2023/10/19 00:56:32;;;;;;;2.28;0.95;;;;;;;7.24;100.00;94427.56;1018753;29;20275;-74
2023/10/19 00:57:08;;;;;;;1.38;1.27;;;;;;;7.17;100.00;94427.13;1019074;29;20350;-74
2023/10/19 00:57:42;;;;;;;7.22;2.25;;;;;;;7.22;100.00;94437.53;1022905;29;20324;-74
2023/10/19 00:58:17;;;;;;;2.08;1.92;;;;;;;7.15;100.00;94431.84;1015030;29;20280;-74
2023/10/19 00:58:55;;;;;;;3.83;1.55;;;;;;;7.15;100.00;94437.84;1011280;29;20265;-74
2023/10/19 00:59:29;;;;;;;2.15;1.70;;;;;;;7.18;100.00;94439.13;1017815;29;20272;-75
2023/10/19 01:00:11;;;;;;;2.10;1.85;;;;;;;7.16;100.00;94442.00;1018905;29;20975;-74
2023/10/19 01:00:43;;;;;;;0.82;0.82;;;;;;;7.10;100.00;94443.06;1015075;29;20271;-74
2023/10/19 01:01:14;;;;;;;1.73;1.63;;;;;;;7.18;100.00;94452.16;1022881;29;20345;-73
2023/10/19 01:01:47;;;;;;;1.67;1.58;;;;;;;7.19;100.00;94451.09;1019028;29;20327;-74
2023/10/19 01:02:59;;;;;;;2.58;2.33;;;;;;;7.19;100.00;94446.66;1014611;29;20267;-75
2023/10/19 01:03:32;;;;;;;2.05;1.90;;;;;;;7.18;100.00;94452.94;1013026;29;20360;-74
2023/10/19 01:04:04;;;;;;;1.00;0.85;;;;;;;7.21;100.00;94449.78;1013469;29;20273;-75
2023/10/19 01:04:34;;;;;;;2.40;1.67;;;;;;;7.22;100.00;94451.34;1016914;29;20286;-75
2023/10/19 01:05:05;;;;;;;2.17;1.95;;;;;;;7.23;100.00;94455.50;1018980;29;20267;-75
2023/10/19 01:05:36;;;;;;;1.73;1.63;;;;;;;7.20;100.00;94444.84;1018919;29;20028;-74
2023/10/19 01:06:09;;;;;;;1.83;1.73;;;;;;;7.21;100.00;94449.00;1018786;29;20733;-75
2023/10/19 01:06:44;;;;;;;1.08;0.98;;;;;;;7.14;100.00;94438.88;1015579;29;20135;-75
2023/10/19 01:07:27;;;;;;;4.53;3.55;;;;;;;7.16;100.00;94447.22;1023680;28;20305;-74
2023/10/19 01:08:01;;;;;;;2.00;1.90;;;;;;;7.19;100.00;94451.88;1023117;29;20295;-75
2023/10/19 01:08:41;;;;;;;3.38;2.03;;;;;;;7.18;100.00;94457.38;1015100;29;20260;-74
2023/10/19 01:09:14;;;;;;;1.70;1.60;;;;;;;7.11;100.00;94451.69;1022761;29;20351;-75
2023/10/19 01:09:45;;;;;;;2.80;1.05;;;;;;;7.16;100.00;94457.66;1015058;29;20331;-74
2023/10/19 01:10:23;;;;;;;6.32;2.40;;;;;;;7.13;100.00;94455.56;1003533;29;20649;-75
2023/10/19 01:10:53;;;;;;;2.38;1.50;;;;;;;7.12;100.00;94440.97;1007422;29;20301;-74
2023/10/19 01:11:28;;;;;;;3.50;2.95;;;;;;;7.09;100.00;94441.53;1011148;29;20276;-74
2023/10/19 01:12:02;;;;;;;5.30;2.25;;;;;;;7.12;100.00;94451.41;1020512;29;20032;-74
2023/10/19 01:13:05;;;;;;;0.85;0.85;;;;;;;7.16;100.00;94451.66;1014577;29;20268;-74
2023/10/19 01:13:36;;;;;;;3.17;2.95;;;;;;;7.13;100.00;94445.16;1016408;29;20032;-75
2023/10/19 01:14:23;;;;;;;3.08;1.55;;;;;;;7.19;100.00;94453.72;1015569;29;20853;-75
2023/10/19 01:15:13;;;;;;;1.80;1.65;;;;;;;7.22;100.00;94448.72;1013416;29;20084;-72
2023/10/19 01:15:49;;;;;;;1.42;1.40;;;;;;;7.25;100.00;94450.03;1014987;29;20272;-73
2023/10/19 01:16:22;;;;;;;2.75;2.53;;;;;;;7.24;100.00;94451.84;1015361;29;20032;-75
2023/10/19 01:16:56;;;;;;;2.45;2.15;;;;;;;7.22;100.00;94438.31;1025514;28;20266;-74
2023/10/19 01:17:26;;;;;;;5.07;2.53;;;;;;;7.22;100.00;94446.13;1021635;29;20275;-74
2023/10/19 01:17:57;;;;;;;3.95;2.25;;;;;;;7.15;100.00;94430.00;1016100;29;20828;-73
2023/10/19 01:18:29;;;;;;;2.00;1.73;;;;;;;7.15;100.00;94435.22;1018296;29;20024;-74
2023/10/19 01:19:00;;;;;;;1.63;1.55;;;;;;;7.24;100.00;94449.25;1016509;29;20024;-75
2023/10/19 01:19:30;;;;;;;10.20;3.15;;;;;;;7.23;100.00;94442.47;1017071;29;20268;-75
2023/10/19 01:20:11;;;;;;;3.47;1.55;;;;;;;7.26;100.00;94447.13;1024279;28;20040;-74
2023/10/19 01:20:50;;;;;;;2.33;2.13;;;;;;;7.21;100.00;94434.16;1020431;29;20030;-75
2023/10/19 01:21:37;;;;;;;2.05;1.25;;;;;;;7.21;100.00;94436.75;1019186;29;20282;-74
2023/10/19 01:22:08;;;;;;;2.40;2.05;;;;;;;7.29;100.00;94443.19;1019472;29;20278;-75
2023/10/19 01:22:45;;;;;;;2.17;1.98;;;;;;;7.29;100.00;94443.19;1018500;29;20271;-74
2023/10/19 01:23:25;;;;;;;3.70;2.40;;;;;;;7.29;100.00;94445.81;1027341;28;20105;-74
2023/10/19 01:23:56;;;;;;;1.65;1.52;;;;;;;7.26;100.00;94438.53;1022943;29;20359;-74
2023/10/19 01:24:40;;;;;;;0.73;0.57;;;;;;;7.23;100.00;94431.25;1025664;28;20579;-74
2023/10/19 01:25:10;;;;;;;2.40;2.25;;;;;;;7.30;100.00;94440.31;1020500;28;20539;-75
2023/10/19 01:25:40;;;;;;;2.17;1.80;;;;;;;7.32;100.00;94446.03;1023192;29;20267;-75
2023/10/19 01:26:17;;;;;;;1.33;1.23;;;;;;;7.36;100.00;94445.50;1017101;29;20028;-74
2023/10/19 01:26:48;;;;;;;2.50;2.28;;;;;;;7.37;100.00;94436.63;1018155;29;20028;-74
2023/10/19 01:27:18;;;;;;;2.80;1.27;;;;;;;7.37;100.00;94447.81;1023215;29;21089;-75
2023/10/19 01:27:49;;;;;;;1.65;1.45;;;;;;;7.37;100.00;94437.38;1023002;29;20428;-75
2023/10/19 01:28:22;;;;;;;4.95;2.50;;;;;;;7.38;100.00;94441.56;1023919;28;20031;-75
2023/10/19 01:29:02;;;;;;;4.60;1.20;;;;;;;7.38;100.00;94435.53;1022780;29;20035;-73
2023/10/19 01:29:32;;;;;;;8.23;2.65;;;;;;;7.39;100.00;94429.28;1022905;29;20277;-75
2023/10/19 01:30:09;;;;;;;5.78;2.95;;;;;;;7.42;100.00;94428.75;1023092;29;20114;-74
2023/10/19 01:30:39;;;;;;;2.45;2.03;;;;;;;7.42;100.00;94428.75;1025298;28;20282;-74
2023/10/19 01:31:30;;;;;;;4.05;2.30;;;;;;;7.44;100.00;94431.84;1023041;29;20278;-74
2023/10/19 01:32:11;;;;;;;0.90;0.90;;;;;;;7.44;100.00;94431.84;1022829;28;20484;-74
2023/10/19 01:32:42;;;;;;;;;;;;;;;7.44;100.00;94426.63;1018981;29;20851;-74
2023/10/19 01:33:13;;;;;;;3.42;2.03;;;;;;;7.45;100.00;94428.22;1026830;28;19921;-74
2023/10/19 01:33:44;;;;;;;3.92;1.40;;;;;;;7.44;100.00;94424.78;1022945;28;20031;-74
2023/10/19 01:34:14;;;;;;;2.33;1.38;;;;;;;7.46;100.00;94429.75;1018781;29;20835;-73
2023/10/19 01:34:45;;;;;;;1.95;1.85;;;;;;;7.46;100.00;94427.16;1018824;29;20039;-74
2023/10/19 01:35:15;;;;;;;1.70;1.60;;;;;;;7.47;100.00;94431.31;1015145;29;20043;-75
2023/10/19 01:36:44;;;;;;;2.40;1.52;;;;;;;7.50;100.00;94435.97;1018922;29;20040;-75
2023/10/19 01:37:14;;;;;;;0.85;0.85;;;;;;;7.38;100.00;94433.75;1021204;29;20311;-74
2023/10/19 01:37:45;;;;;;;2.47;1.95;;;;;;;7.39;100.00;94452.78;1014913;29;20100;-74
2023/10/19 01:38:16;;;;;;;9.02;2.17;;;;;;;7.37;100.00;94447.81;1015134;29;20043;-75
2023/10/19 01:38:47;;;;;;;1.38;1.27;;;;;;;7.33;100.00;94455.41;1014672;29;20033;-75
2023/10/19 01:39:18;;;;;;;0.38;0.38;;;;;;;7.23;100.00;94445.06;1011724;29;20051;-76
2023/10/19 01:39:49;;;;;;;2.03;1.73;;;;;;;7.25;100.00;94442.97;1011333;29;20269;-73
2023/10/19 01:40:22;;;;;;;5.88;3.03;;;;;;;7.27;100.00;94453.91;1015011;29;20833;-74
2023/10/19 01:40:54;;;;;;;2.15;2.00;;;;;;;7.26;100.00;94452.34;1015006;29;20107;-75
2023/10/19 01:41:26;;;;;;;3.00;2.20;;;;;;;7.24;100.00;94459.69;1015094;29;20264;-74
2023/10/19 01:41:57;;;;;;;6.72;1.98;;;;;;;7.20;100.00;94461.25;1011244;29;20337;-75
2023/10/19 01:42:27;;;;;;;2.47;2.25;;;;;;;7.19;100.00;94451.09;1018022;29;20354;-75
2023/10/19 01:42:59;;;;;;;3.75;2.80;;;;;;;7.27;100.00;94453.13;1014392;29;20024;-75
2023/10/19 01:43:30;;;;;;;3.05;1.58;;;;;;;7.28;100.00;94450.25;1016042;29;20115;-74
2023/10/19 01:44:13;;;;;;;2.92;2.67;;;;;;;7.23;100.00;94447.69;1017075;29;20287;-74
2023/10/19 01:44:43;;;;;;;2.50;2.08;;;;;;;7.25;100.00;94456.03;1018972;29;20310;-75
2023/10/19 01:45:14;;;;;;;3.38;3.08;;;;;;;7.26;100.00;94456.78;1022818;29;20826;-75
2023/10/19 01:45:44;;;;;;;2.35;2.10;;;;;;;7.27;100.00;94456.50;1012489;29;20610;-74
2023/10/19 01:46:21;;;;;;;3.20;2.90;;;;;;;7.20;100.00;94444.84;1011455;29;20036;-73
2023/10/19 01:46:52;;;;;;;1.38;1.23;;;;;;;7.23;100.00;94445.06;1022734;29;20015;-74
2023/10/19 01:47:24;;;;;;;1.73;1.63;;;;;;;7.21;100.00;94443.78;1017965;29;20764;-74
2023/10/19 01:47:54;;;;;;;2.92;2.72;;;;;;;7.23;100.00;94447.69;1007028;29;20108;-74
2023/10/19 01:48:33;;;;;;;1.75;1.65;;;;;;;7.25;100.00;94440.38;1015080;29;20331;-73
2023/10/19 01:49:04;;;;;;;5.03;1.27;;;;;;;7.19;100.00;94425.78;1014954;29;20513;-73
2023/10/19 01:49:34;;;;;;;2.22;2.08;;;;;;;7.22;100.00;94438.31;1018905;29;20271;-73
2023/10/19 01:50:05;;;;;;;2.78;2.58;;;;;;;7.26;100.00;94444.53;1023960;28;20631;-72
2023/10/19 01:50:39;;;;;;;2.72;2.15;;;;;;;7.24;100.00;94433.59;1021857;29;20050;-73
2023/10/19 01:51:13;;;;;;;2.60;2.47;;;;;;;7.16;100.00;94409.91;1018919;29;20280;-73
2023/10/19 01:51:46;;;;;;;1.60;1.23;;;;;;;7.17;100.00;94430.50;1022986;29;20285;-75
2023/10/19 01:52:17;;;;;;;1.70;1.42;;;;;;;7.21;100.00;94428.94;1019832;28;20705;-73
2023/10/19 01:52:47;;;;;;;2.70;2.10;;;;;;;7.17;100.00;94411.47;1021281;29;20266;-74
2023/10/19 01:53:18;;;;;;;1.85;1.23;;;;;;;7.21;100.00;94418.50;1018139;29;20445;-74
2023/10/19 01:53:48;;;;;;;2.92;2.25;;;;;;;7.15;100.00;94411.75;1014857;29;20058;-73
2023/10/19 01:54:22;;;;;;;1.38;1.10;;;;;;;7.21;100.00;94421.09;1018885;29;20036;-73
2023/10/19 01:54:59;;;;;;;7.55;1.63;;;;;;;7.22;100.00;94404.38;1018220;29;20015;-73
2023/10/19 01:55:34;;;;;;;6.38;2.95;;;;;;;7.26;100.00;94407.22;1016135;29;20356;-73
2023/10/19 01:56:05;;;;;;;2.42;2.20;;;;;;;7.23;100.00;94424.19;1022009;29;20632;-74
2023/10/19 01:56:36;;;;;;;3.05;1.92;;;;;;;7.24;100.00;94411.94;1024729;28;20279;-73
2023/10/19 01:57:08;;;;;;;7.22;1.85;;;;;;;7.21;100.00;94402.03;1021998;29;20030;-74
2023/10/19 01:57:39;;;;;;;2.55;1.58;;;;;;;7.26;100.00;94410.59;1018695;29;20051;-73
2023/10/19 01:58:10;;;;;;;3.10;1.85;;;;;;;7.23;100.00;94411.16;1022533;29;20299;-73
2023/10/19 01:58:42;;;;;;;3.10;1.95;;;;;;;7.24;100.00;94411.94;1030846;28;20038;-74
2023/10/19 01:59:16;;;;;;;1.65;1.02;;;;;;;7.23;100.00;94413.75;1022002;29;20366;-73
2023/10/19 01:59:46;;;;;;;1.83;1.67;;;;;;;7.26;100.00;94404.63;1018689;29;20328;-75
2023/10/19 02:00:22;;;;;;;4.38;3.05;;;;;;;7.26;100.00;94412.44;1015625;29;20345;-74
2023/10/19 02:01:00;;;;;;;1.85;1.75;;;;;;;7.24;100.00;94406.72;1019968;29;20126;-73
2023/10/19 02:01:33;;;;;;;3.70;2.33;;;;;;;7.20;100.00;94400.50;1012696;29;21128;-75
2023/10/19 02:02:03;;;;;;;1.92;1.60;;;;;;;7.23;100.00;94405.94;1014768;29;20268;-73
2023/10/19 02:02:35;;;;;;;6.35;2.10;;;;;;;7.24;100.00;94407.50;1018954;29;21037;-74
2023/10/19 02:03:08;;;;;;;4.82;2.88;;;;;;;7.27;100.00;94406.16;1014538;29;20039;-74
2023/10/19 02:03:41;;;;;;;5.47;1.95;;;;;;;7.29;100.00;94406.69;1022593;29;20279;-74
2023/10/19 02:04:13;;;;;;;2.45;2.15;;;;;;;7.24;100.00;94396.28;1018861;29;20386;-73
2023/10/19 02:04:43;;;;;;;2.92;1.10;;;;;;;7.28;100.00;94402.53;1014785;29;20267;-73
2023/10/19 02:05:15;;;;;;;1.70;1.60;;;;;;;7.17;100.00;94385.38;1019525;29;20812;-73
2023/10/19 02:05:49;;;;;;;1.65;1.55;;;;;;;7.31;100.00;94412.41;1010841;29;20438;-74
2023/10/19 02:06:20;;;;;;;2.00;1.90;;;;;;;7.33;100.00;94410.28;1010930;29;20273;-74
2023/10/19 02:06:52;;;;;;;3.53;2.08;;;;;;;7.36;100.00;94403.75;1010476;29;20280;-73
2023/10/19 02:07:23;;;;;;;3.08;2.13;;;;;;;7.33;100.00;94408.44;1013360;29;20025;-74
2023/10/19 02:07:54;;;;;;;3.13;1.90;;;;;;;7.34;100.00;94411.84;1019652;29;20255;-72
2023/10/19 02:08:26;;;;;;;2.35;2.15;;;;;;;7.31;100.00;94407.97;1023113;28;20114;-73
2023/10/19 02:09:17;;;;;;;2.60;2.35;;;;;;;7.29;100.00;94410.06;1018565;29;20276;-74
2023/10/19 02:09:48;;;;;;;2.38;2.08;;;;;;;7.33;100.00;94418.13;1018586;29;20268;-74
2023/10/19 02:10:18;;;;;;;5.57;3.00;;;;;;;7.27;100.00;94417.38;1022688;29;20031;-74
2023/10/19 02:10:49;;;;;;;4.35;2.25;;;;;;;7.23;100.00;94411.16;1032353;28;20509;-74
2023/10/19 02:11:23;;;;;;;2.30;1.25;;;;;;;7.29;100.00;94415.28;1028498;28;20602;-73
2023/10/19 02:11:57;;;;;;;3.58;2.28;;;;;;;7.25;100.00;94409.06;1014849;29;20035;-73
2023/10/19 02:12:27;;;;;;;1.75;1.65;;;;;;;7.32;100.00;94412.13;1014786;29;20331;-73
2023/10/19 02:12:58;;;;;;;6.15;1.65;;;;;;;7.34;100.00;94411.84;1014224;29;20849;-73
2023/10/19 02:13:28;;;;;;;3.95;2.47;;;;;;;7.32;100.00;94408.75;1019157;29;20066;-73
2023/10/19 02:14:00;;;;;;;3.33;1.65;;;;;;;7.31;100.00;94404.59;1011397;29;20829;-73
2023/10/19 02:14:31;;;;;;;4.47;2.92;;;;;;;7.30;100.00;94401.16;1014619;29;20416;-73
2023/10/19 02:15:04;;;;;;;2.45;2.25;;;;;;;7.33;100.00;94405.06;1018696;29;20804;-73
2023/10/19 02:15:35;;;;;;;1.52;1.33;;;;;;;7.31;100.00;94404.59;1015999;29;20075;-73
2023/10/19 02:16:06;;;;;;;1.92;1.83;;;;;;;7.29;100.00;94407.44;1022661;29;20320;-74
2023/10/19 02:16:37;;;;;;;5.53;2.50;;;;;;;7.25;100.00;94396.00;1022554;28;20358;-73
2023/10/19 02:17:09;;;;;;;2.30;2.10;;;;;;;7.21;100.00;94392.41;1019317;29;20791;-73
2023/10/19 02:17:39;;;;;;;2.50;2.30;;;;;;;7.28;100.00;94403.28;1015077;29;20268;-74
2023/10/19 02:18:10;;;;;;;1.98;1.77;;;;;;;7.29;100.00;94404.84;1014697;29;20276;-73
2023/10/19 02:18:42;;;;;;;4.82;3.25;;;;;;;7.26;100.00;94405.38;1010723;29;20059;-74
2023/10/19 02:19:13;;;;;;;2.67;1.48;;;;;;;7.26;100.00;94407.22;1014944;29;20035;-73
2023/10/19 02:19:43;;;;;;;2.17;2.08;;;;;;;7.13;100.00;94376.56;1014737;29;20279;-74
2023/10/19 02:20:17;;;;;;;1.23;0.73;;;;;;;7.30;100.00;94400.41;1014601;29;20028;-71
2023/10/19 02:20:48;;;;;;;2.40;2.30;;;;;;;7.30;100.00;94400.41;1007581;29;20063;-74
2023/10/19 02:21:30;;;;;;;4.93;4.32;;;;;;;7.30;100.00;94401.16;1015263;29;20318;-74
2023/10/19 02:22:08;;;;;;;2.97;2.20;;;;;;;7.28;100.00;94398.06;1018859;29;20785;-72
2023/10/19 02:22:38;;;;;;;4.28;2.70;;;;;;;7.28;100.00;94394.69;1014042;29;20268;-73
2023/10/19 02:23:09;;;;;;;1.90;1.77;;;;;;;7.30;100.00;94390.72;1012112;29;20617;-74
2023/10/19 02:23:41;;;;;;;3.08;2.78;;;;;;;7.28;100.00;94392.84;1010896;29;20036;-74
2023/10/19 02:24:14;;;;;;;2.92;2.03;;;;;;;7.26;100.00;94384.53;1015931;29;20370;-72
2023/10/19 02:24:44;;;;;;;3.45;2.22;;;;;;;7.33;100.00;94379.75;1018958;29;20271;-73
2023/10/19 02:25:15;;;;;;;2.25;1.73;;;;;;;7.33;100.00;94389.41;1017284;29;20280;-74
2023/10/19 02:25:45;;;;;;;2.05;1.88;;;;;;;7.33;100.00;94387.59;1019139;29;20039;-74
2023/10/19 02:26:19;;;;;;;3.95;2.33;;;;;;;7.33;100.00;94384.97;1019342;29;20386;-72
2023/10/19 02:26:51;;;;;;;4.05;2.40;;;;;;;7.32;100.00;94378.19;1024184;28;20027;-74
2023/10/19 02:27:22;;;;;;;3.58;2.33;;;;;;;7.32;100.00;94383.44;1023915;28;20266;-74
2023/10/19 02:27:52;;;;;;;2.67;2.47;;;;;;;7.37;100.00;94384.44;1027051;28;21026;-73
2023/10/19 02:28:29;;;;;;;3.05;2.53;;;;;;;7.37;100.00;94379.19;1023038;29;20031;-74
2023/10/19 02:29:00;;;;;;;4.70;2.83;;;;;;;7.37;100.00;94379.19;1016317;29;20025;-73
2023/10/19 02:29:31;;;;;;;2.63;2.42;;;;;;;7.38;100.00;94378.16;1019132;29;20701;-73
2023/10/19 02:30:03;;;;;;;1.73;1.65;;;;;;;7.35;100.00;94370.88;1020403;29;20385;-74
2023/10/19 02:30:34;;;;;;;4.70;2.72;;;;;;;7.39;100.00;94382.31;1018700;29;20291;-72
2023/10/19 02:31:25;;;;;;;3.40;2.67;;;;;;;7.40;100.00;94378.66;1019168;29;20270;-72
2023/10/19 02:31:56;;;;;;;2.45;2.28;;;;;;;7.35;100.00;94373.50;1015553;29;20805;-74
2023/10/19 02:32:26;;;;;;;2.60;1.80;;;;;;;7.38;100.00;94375.53;1025201;28;20068;-74
2023/10/19 02:32:57;;;;;;;2.85;2.63;;;;;;;7.37;100.00;94369.53;1022466;29;20295;-73
2023/10/19 02:33:29;;;;;;;2.13;2.03;;;;;;;7.38;100.00;94376.34;1023172;28;20023;-74
2023/10/19 02:34:00;;;;;;;8.05;3.58;;;;;;;7.37;100.00;94374.00;1022695;28;20033;-73
2023/10/19 02:34:30;;;;;;;4.18;3.65;;;;;;;7.39;100.00;94377.13;1015025;29;20279;-73
2023/10/19 02:35:02;;;;;;;2.70;1.95;;;;;;;7.38;100.00;94375.53;1015413;29;20113;-73
2023/10/19 02:35:35;;;;;;;2.15;1.98;;;;;;;7.38;100.00;94378.16;1013647;29;20029;-74
2023/10/19 02:36:12;;;;;;;3.97;1.98;;;;;;;7.39;100.00;94367.44;1015702;29;20256;-73
2023/10/19 02:36:43;;;;;;;1.52;1.42;;;;;;;7.41;100.00;94367.16;1019149;29;20266;-73
2023/10/19 02:37:14;;;;;;;4.43;2.00;;;;;;;7.38;100.00;94370.31;1020183;29;20637;-73
2023/10/19 02:37:44;;;;;;;3.85;2.25;;;;;;;7.37;100.00;94360.94;1015009;29;20275;-73
2023/10/19 02:38:15;;;;;;;7.45;3.13;;;;;;;7.38;100.00;94370.31;1016389;29;20032;-73
2023/10/19 02:38:49;;;;;;;3.60;3.05;;;;;;;7.38;100.00;94370.31;1010926;29;20546;-74
2023/10/19 02:39:20;;;;;;;3.92;3.53;;;;;;;7.38;100.00;94365.91;1011996;29;20033;-73
2023/10/19 02:39:50;;;;;;;5.88;4.30;;;;;;;7.37;100.00;94363.56;1015119;29;20363;-73
2023/10/19 02:40:25;;;;;;;1.67;1.58;;;;;;;7.37;100.00;94359.09;1014988;29;20100;-73
2023/10/19 02:40:55;;;;;;;2.40;2.20;;;;;;;7.38;100.00;94362.47;1014832;29;20259;-73
2023/10/19 02:41:29;;;;;;;3.03;2.83;;;;;;;7.31;100.00;94349.78;1011273;29;20722;-73
2023/10/19 02:42:01;;;;;;;2.67;2.40;;;;;;;7.30;100.00;94343.78;1021191;28;20020;-73
2023/10/19 02:42:31;;;;;;;2.20;2.10;;;;;;;7.36;100.00;94346.34;1023910;28;20258;-73
2023/10/19 02:43:03;;;;;;;5.57;2.55;;;;;;;7.33;100.00;94345.84;1026444;28;20278;-72
2023/10/19 02:43:35;;;;;;;4.40;3.47;;;;;;;7.33;100.00;94343.22;1018333;29;20260;-73